sensor_id;sensor_type;location;lat;lon;timestamp;pressure;altitude;pressure_sealevel;temperature;humidity
14232;BME280;7200;52.194;9.900;2022-12-29T00:00:07;98916.91;;;10.10;100.00
14232;BME280;7200;52.194;9.900;2022-12-29T00:02:37;98907.50;;;10.06;100.00
14232;BME280;7200;52.194;9.900;2022-12-29T00:05:02;98898.19;;;10.15;100.00
14232;BME280;7200;52.194;9.900;2022-12-29T00:07:30;98892.28;;;10.11;100.00
14232;BME280;7200;52.194;9.900;2022-12-29T00:09:55;98890.13;;;10.18;100.00
14232;BME280;7200;52.194;9.900;2022-12-29T00:12:21;98864.31;;;10.09;100.00
14232;BME280;7200;52.194;9.900;2022-12-29T00:14:46;98886.19;;;10.25;100.00
14232;BME280;7200;52.194;9.900;2022-12-29T00:17:30;98874.47;;;10.15;100.00
14232;BME280;7200;52.194;9.900;2022-12-29T00:19:55;98868.28;;;10.16;100.00
14232;BME280;7200;52.194;9.900;2022-12-29T00:22:39;98886.19;;;10.25;100.00
14232;BME280;7200;52.194;9.900;2022-12-29T00:25:23;98886.34;;;10.22;100.00
14232;BME280;7200;52.194;9.900;2022-12-29T00:28:10;98869.41;;;10.26;100.00
14232;BME280;7200;52.194;9.900;2022-12-29T00:30:59;98870.28;;;10.27;100.00
14232;BME280;7200;52.194;9.900;2022-12-29T00:33:44;98884.81;;;10.34;100.00
14232;BME280;7200;52.194;9.900;2022-12-29T00:36:32;98877.75;;;10.35;100.00
14232;BME280;7200;52.194;9.900;2022-12-29T00:39:19;98893.69;;;10.47;100.00
14232;BME280;7200;52.194;9.900;2022-12-29T00:42:04;98877.38;;;10.41;100.00
14232;BME280;7200;52.194;9.900;2022-12-29T00:44:48;98883.22;;;10.46;100.00
14232;BME280;7200;52.194;9.900;2022-12-29T00:47:14;98877.28;;;10.42;100.00
14232;BME280;7200;52.194;9.900;2022-12-29T00:49:39;98869.75;;;10.36;100.00
14232;BME280;7200;52.194;9.900;2022-12-29T00:52:09;98892.44;;;10.39;100.00
14232;BME280;7200;52.194;9.900;2022-12-29T00:54:37;98897.13;;;10.33;100.00
14232;BME280;7200;52.194;9.900;2022-12-29T00:57:05;98893.66;;;10.33;100.00
14232;BME280;7200;52.194;9.900;2022-12-29T00:59:31;98891.03;;;10.47;100.00
14232;BME280;7200;52.194;9.900;2022-12-29T01:01:57;98892.06;;;10.45;100.00
14232;BME280;7200;52.194;9.900;2022-12-29T01:04:25;98909.88;;;10.56;100.00
14232;BME280;7200;52.194;9.900;2022-12-29T01:06:53;98882.47;;;10.44;100.00
14232;BME280;7200;52.194;9.900;2022-12-29T01:09:20;98865.69;;;10.45;100.00
14232;BME280;7200;52.194;9.900;2022-12-29T01:12:08;98870.41;;;10.40;100.00
14232;BME280;7200;52.194;9.900;2022-12-29T01:14:34;98869.63;;;10.38;100.00
14232;BME280;7200;52.194;9.900;2022-12-29T01:16:59;98881.81;;;10.40;100.00
14232;BME280;7200;52.194;9.900;2022-12-29T01:19:25;98870.19;;;10.28;100.00
14232;BME280;7200;52.194;9.900;2022-12-29T01:21:50;98879.72;;;10.31;100.00
14232;BME280;7200;52.194;9.900;2022-12-29T01:24:21;98882.94;;;10.36;100.00
14232;BME280;7200;52.194;9.900;2022-12-29T01:26:47;98865.94;;;10.26;100.00
14232;BME280;7200;52.194;9.900;2022-12-29T01:29:13;98861.50;;;10.26;100.00
14232;BME280;7200;52.194;9.900;2022-12-29T01:31:39;98876.38;;;10.27;100.00
14232;BME280;7200;52.194;9.900;2022-12-29T01:34:04;98888.00;;;10.39;100.00
14232;BME280;7200;52.194;9.900;2022-12-29T01:36:30;98873.41;;;10.33;100.00
14232;BME280;7200;52.194;9.900;2022-12-29T01:38:55;98876.91;;;10.34;100.00
14232;BME280;7200;52.194;9.900;2022-12-29T01:41:21;98877.75;;;10.35;100.00
14232;BME280;7200;52.194;9.900;2022-12-29T01:48:42;98852.00;;;10.24;100.00
14232;BME280;7200;52.194;9.900;2022-12-29T01:51:08;98882.19;;;10.34;100.00
14232;BME280;7200;52.194;9.900;2022-12-29T01:53:34;98874.28;;;10.34;100.00
14232;BME280;7200;52.194;9.900;2022-12-29T01:56:06;98862.16;;;10.30;100.00
14232;BME280;7200;52.194;9.900;2022-12-29T01:58:36;98864.47;;;10.36;100.00
14232;BME280;7200;52.194;9.900;2022-12-29T02:01:03;98858.69;;;10.29;100.00
14232;BME280;7200;52.194;9.900;2022-12-29T02:03:30;98856.06;;;10.29;100.00
14232;BME280;7200;52.194;9.900;2022-12-29T02:06:43;98865.44;;;10.49;100.00
14232;BME280;7200;52.194;9.900;2022-12-29T02:09:11;98883.22;;;10.60;100.00
14232;BME280;7200;52.194;9.900;2022-12-29T02:11:40;98867.19;;;10.63;100.00
14232;BME280;7200;52.194;9.900;2022-12-29T02:14:10;98846.19;;;10.62;100.00
14232;BME280;7200;52.194;9.900;2022-12-29T02:21:56;98851.88;;;10.70;100.00
14232;BME280;7200;52.194;9.900;2022-12-29T02:27:27;98827.34;;;10.68;100.00
14232;BME280;7200;52.194;9.900;2022-12-29T02:30:08;98845.63;;;10.85;100.00
14232;BME280;7200;52.194;9.900;2022-12-29T02:35:25;98833.91;;;10.89;100.00
14232;BME280;7200;52.194;9.900;2022-12-29T02:40:35;98817.13;;;10.90;100.00
14232;BME280;7200;52.194;9.900;2022-12-29T02:48:36;98820.06;;;11.00;100.00
14232;BME280;7200;52.194;9.900;2022-12-29T02:51:10;98814.97;;;10.97;100.00
14232;BME280;7200;52.194;9.900;2022-12-29T02:53:39;98800.28;;;10.93;100.00
14232;BME280;7200;52.194;9.900;2022-12-29T02:56:24;98809.34;;;10.89;100.00
14232;BME280;7200;52.194;9.900;2022-12-29T02:58:49;98781.28;;;10.74;100.00
14232;BME280;7200;52.194;9.900;2022-12-29T03:12:34;98798.47;;;10.94;100.00
14232;BME280;7200;52.194;9.900;2022-12-29T03:15:29;98798.38;;;10.95;100.00
14232;BME280;7200;52.194;9.900;2022-12-29T03:18:18;98788.59;;;10.83;100.00
14232;BME280;7200;52.194;9.900;2022-12-29T03:21:03;98801.03;;;10.81;100.00
14232;BME280;7200;52.194;9.900;2022-12-29T03:23:32;98800.50;;;10.76;100.00
14232;BME280;7200;52.194;9.900;2022-12-29T03:26:02;98790.72;;;10.63;100.00
14232;BME280;7200;52.194;9.900;2022-12-29T03:28:39;98810.41;;;10.72;100.00
14232;BME280;7200;52.194;9.900;2022-12-29T03:31:08;98814.16;;;10.82;100.00
14232;BME280;7200;52.194;9.900;2022-12-29T03:33:35;98812.56;;;10.80;100.00
14232;BME280;7200;52.194;9.900;2022-12-29T03:36:05;98800.50;;;10.76;100.00
14232;BME280;7200;52.194;9.900;2022-12-29T03:38:37;98808.13;;;10.80;100.00
14232;BME280;7200;52.194;9.900;2022-12-29T03:41:09;98798.31;;;10.82;100.00
14232;BME280;7200;52.194;9.900;2022-12-29T03:43:36;98791.19;;;10.70;100.00
14232;BME280;7200;52.194;9.900;2022-12-29T03:46:01;98802.28;;;10.75;100.00
14232;BME280;7200;52.194;9.900;2022-12-29T03:48:26;98818.28;;;10.86;100.00
14232;BME280;7200;52.194;9.900;2022-12-29T03:50:51;98784.88;;;10.73;100.00
14232;BME280;7200;52.194;9.900;2022-12-29T03:53:17;98783.47;;;10.67;100.00
14232;BME280;7200;52.194;9.900;2022-12-29T03:55:43;98801.94;;;10.67;100.00
14232;BME280;7200;52.194;9.900;2022-12-29T03:58:08;98798.53;;;10.65;100.00
14232;BME280;7200;52.194;9.900;2022-12-29T04:00:33;98809.25;;;10.76;100.00
14232;BME280;7200;52.194;9.900;2022-12-29T04:02:58;98797.88;;;10.76;100.00
14232;BME280;7200;52.194;9.900;2022-12-29T04:05:24;98795.50;;;10.71;100.00
14232;BME280;7200;52.194;9.900;2022-12-29T04:07:49;98798.25;;;10.69;100.00
14232;BME280;7200;52.194;9.900;2022-12-29T04:10:15;98802.59;;;10.70;100.00
14232;BME280;7200;52.194;9.900;2022-12-29T04:12:40;98819.50;;;10.81;100.00
14232;BME280;7200;52.194;9.900;2022-12-29T04:15:07;98818.50;;;10.83;100.00
14232;BME280;7200;52.194;9.900;2022-12-29T04:17:33;98827.41;;;10.95;100.00
14232;BME280;7200;52.194;9.900;2022-12-29T04:19:58;98812.50;;;10.94;100.00
14232;BME280;7200;52.194;9.900;2022-12-29T04:22:43;98814.38;;;11.06;100.00
14232;BME280;7200;52.194;9.900;2022-12-29T04:25:09;98800.84;;;10.98;100.00
14232;BME280;7200;52.194;9.900;2022-12-29T04:27:34;98800.22;;;11.07;100.00
14232;BME280;7200;52.194;9.900;2022-12-29T04:30:00;98803.66;;;11.22;100.00
14232;BME280;7200;52.194;9.900;2022-12-29T04:32:25;98775.88;;;11.17;100.00
14232;BME280;7200;52.194;9.900;2022-12-29T04:34:50;98789.44;;;11.25;100.00
14232;BME280;7200;52.194;9.900;2022-12-29T04:37:15;98765.97;;;11.20;100.00
14232;BME280;7200;52.194;9.900;2022-12-29T04:39:41;98768.09;;;11.28;100.00
14232;BME280;7200;52.194;9.900;2022-12-29T04:42:06;98754.88;;;11.28;100.00
14232;BME280;7200;52.194;9.900;2022-12-29T04:44:31;98754.78;;;11.29;100.00
14232;BME280;7200;52.194;9.900;2022-12-29T04:46:56;98756.09;;;11.37;100.00
14232;BME280;7200;52.194;9.900;2022-12-29T04:49:25;98748.47;;;11.45;100.00
14232;BME280;7200;52.194;9.900;2022-12-29T04:51:50;98722.50;;;11.39;100.00
14232;BME280;7200;52.194;9.900;2022-12-29T04:54:15;98735.63;;;11.53;100.00
14232;BME280;7200;52.194;9.900;2022-12-29T04:56:41;98708.25;;;11.54;100.00
14232;BME280;7200;52.194;9.900;2022-12-29T04:59:06;98715.00;;;11.58;100.00
14232;BME280;7200;52.194;9.900;2022-12-29T05:01:31;98707.53;;;11.65;100.00
14232;BME280;7200;52.194;9.900;2022-12-29T05:03:56;98691.78;;;11.63;100.00
14232;BME280;7200;52.194;9.900;2022-12-29T05:06:22;98679.31;;;11.65;100.00
14232;BME280;7200;52.194;9.900;2022-12-29T05:08:47;98661.25;;;11.59;100.00
14232;BME280;7200;52.194;9.900;2022-12-29T05:11:12;98659.44;;;11.60;100.00
14232;BME280;7200;52.194;9.900;2022-12-29T05:13:37;98650.47;;;11.62;100.00
14232;BME280;7200;52.194;9.900;2022-12-29T05:16:03;98646.88;;;11.63;100.00
14232;BME280;7200;52.194;9.900;2022-12-29T05:18:28;98642.31;;;11.65;100.00
14232;BME280;7200;52.194;9.900;2022-12-29T05:20:54;98648.88;;;11.73;100.00
14232;BME280;7200;52.194;9.900;2022-12-29T05:23:19;98640.41;;;11.67;100.00
14232;BME280;7200;52.194;9.900;2022-12-29T05:25:44;98644.13;;;11.65;100.00
14232;BME280;7200;52.194;9.900;2022-12-29T05:28:13;98650.78;;;11.71;100.00
14232;BME280;7200;52.194;9.900;2022-12-29T05:30:38;98644.97;;;11.65;100.00
14232;BME280;7200;52.194;9.900;2022-12-29T05:33:04;98629.22;;;11.64;100.00
14232;BME280;7200;52.194;9.900;2022-12-29T05:35:31;98643.19;;;11.66;100.00
14232;BME280;7200;52.194;9.900;2022-12-29T05:37:57;98640.75;;;11.63;100.00
14232;BME280;7200;52.194;9.900;2022-12-29T05:40:22;98646.47;;;11.57;100.00
14232;BME280;7200;52.194;9.900;2022-12-29T05:42:47;98645.72;;;11.55;100.00
14232;BME280;7200;52.194;9.900;2022-12-29T05:45:13;98661.25;;;11.59;100.00
14232;BME280;7200;52.194;9.900;2022-12-29T05:47:38;98671.28;;;11.54;100.00
14232;BME280;7200;52.194;9.900;2022-12-29T05:50:04;98665.16;;;11.41;100.00
14232;BME280;7200;52.194;9.900;2022-12-29T05:52:29;98672.53;;;11.48;100.00
14232;BME280;7200;52.194;9.900;2022-12-29T05:54:54;98676.13;;;11.35;100.00
14232;BME280;7200;52.194;9.900;2022-12-29T05:57:19;98681.50;;;11.33;100.00
14232;BME280;7200;52.194;9.900;2022-12-29T05:59:45;98672.94;;;11.17;100.00
14232;BME280;7200;52.194;9.900;2022-12-29T06:02:10;98682.00;;;11.13;100.00
14232;BME280;7200;52.194;9.900;2022-12-29T06:04:35;98698.91;;;11.10;100.00
14232;BME280;7200;52.194;9.900;2022-12-29T06:07:00;98698.53;;;11.02;100.00
14232;BME280;7200;52.194;9.900;2022-12-29T06:09:26;98720.19;;;11.07;100.00
14232;BME280;7200;52.194;9.900;2022-12-29T06:11:51;98722.00;;;11.06;100.00
14232;BME280;7200;52.194;9.900;2022-12-29T06:14:16;98746.44;;;11.23;100.00
14232;BME280;7200;52.194;9.900;2022-12-29T06:16:41;98732.06;;;11.14;100.00
14232;BME280;7200;52.194;9.900;2022-12-29T06:19:07;98726.47;;;11.19;100.00
14232;BME280;7200;52.194;9.900;2022-12-29T06:21:32;98706.41;;;11.16;100.00
14232;BME280;7200;52.194;9.900;2022-12-29T06:23:57;98703.84;;;11.15;100.00
14232;BME280;7200;52.194;9.900;2022-12-29T06:26:23;98702.28;;;11.12;100.00
14232;BME280;7200;52.194;9.900;2022-12-29T06:28:48;98707.78;;;11.22;100.00
14232;BME280;7200;52.194;9.900;2022-12-29T06:31:13;98706.53;;;11.27;100.00
14232;BME280;7200;52.194;9.900;2022-12-29T06:33:39;98718.56;;;11.32;100.00
14232;BME280;7200;52.194;9.900;2022-12-29T06:36:04;98697.13;;;11.23;100.00
14232;BME280;7200;52.194;9.900;2022-12-29T06:38:30;98695.97;;;11.27;100.00
14232;BME280;7200;52.194;9.900;2022-12-29T06:40:55;98708.13;;;11.43;100.00
14232;BME280;7200;52.194;9.900;2022-12-29T06:43:20;98700.84;;;11.46;100.00
14232;BME280;7200;52.194;9.900;2022-12-29T06:45:45;98683.84;;;11.50;100.00
14232;BME280;7200;52.194;9.900;2022-12-29T06:48:11;98673.41;;;11.49;100.00
14232;BME280;7200;52.194;9.900;2022-12-29T06:50:36;98677.72;;;11.50;100.00
14232;BME280;7200;52.194;9.900;2022-12-29T06:53:01;98679.84;;;11.58;100.00
14232;BME280;7200;52.194;9.900;2022-12-29T06:55:27;98675.63;;;11.55;100.00
14232;BME280;7200;52.194;9.900;2022-12-29T06:57:57;98659.69;;;11.57;100.00
14232;BME280;7200;52.194;9.900;2022-12-29T07:00:23;98678.03;;;11.58;100.00
14232;BME280;7200;52.194;9.900;2022-12-29T07:02:49;98672.56;;;11.61;100.00
14232;BME280;7200;52.194;9.900;2022-12-29T07:05:14;98657.00;;;11.69;100.00
14232;BME280;7200;52.194;9.900;2022-12-29T07:07:39;98648.56;;;11.77;100.00
14232;BME280;7200;52.194;9.900;2022-12-29T07:10:05;98653.19;;;11.86;100.00
14232;BME280;7200;52.194;9.900;2022-12-29T07:12:30;98662.50;;;11.92;100.00
14232;BME280;7200;52.194;9.900;2022-12-29T07:14:55;98639.50;;;11.94;100.00
14232;BME280;7200;52.194;9.900;2022-12-29T07:17:21;98635.31;;;12.03;100.00
14232;BME280;7200;52.194;9.900;2022-12-29T07:19:46;98607.97;;;12.04;100.00
14232;BME280;7200;52.194;9.900;2022-12-29T07:22:11;98577.72;;;11.95;100.00
14232;BME280;7200;52.194;9.900;2022-12-29T07:24:37;98587.03;;;12.01;100.00
14232;BME280;7200;52.194;9.900;2022-12-29T07:27:03;98590.38;;;12.16;100.00
14232;BME280;7200;52.194;9.900;2022-12-29T07:29:28;98571.34;;;12.11;100.00
14232;BME280;7200;52.194;9.900;2022-12-29T07:31:53;98574.44;;;12.04;100.00
14232;BME280;7200;52.194;9.900;2022-12-29T07:34:19;98599.47;;;12.12;100.00
14232;BME280;7200;52.194;9.900;2022-12-29T07:36:44;98592.22;;;12.02;100.00
14232;BME280;7200;52.194;9.900;2022-12-29T07:39:09;98597.38;;;12.04;100.00
14232;BME280;7200;52.194;9.900;2022-12-29T07:41:36;98594.22;;;11.99;100.00
14232;BME280;7200;52.194;9.900;2022-12-29T07:44:01;98638.41;;;11.97;100.00
14232;BME280;7200;52.194;9.900;2022-12-29T07:46:27;98641.03;;;11.84;100.00
14232;BME280;7200;52.194;9.900;2022-12-29T07:48:52;98679.97;;;11.95;100.00
14232;BME280;7200;52.194;9.900;2022-12-29T07:51:17;98667.94;;;11.91;100.00
14232;BME280;7200;52.194;9.900;2022-12-29T07:53:42;98683.13;;;12.00;100.00
14232;BME280;7200;52.194;9.900;2022-12-29T07:56:08;98666.97;;;11.92;100.00
14232;BME280;7200;52.194;9.900;2022-12-29T07:58:33;98688.81;;;11.81;100.00
14232;BME280;7200;52.194;9.900;2022-12-29T08:00:58;98657.03;;;11.57;100.00
14232;BME280;7200;52.194;9.900;2022-12-29T08:03:24;98654.47;;;11.42;100.00
14232;BME280;7200;52.194;9.900;2022-12-29T08:05:51;98680.56;;;11.34;100.00
14232;BME280;7200;52.194;9.900;2022-12-29T08:08:16;98696.16;;;11.12;100.00
14232;BME280;7200;52.194;9.900;2022-12-29T08:10:41;98743.66;;;11.12;100.00
14232;BME280;7200;52.194;9.900;2022-12-29T08:13:07;98761.59;;;11.06;100.00
14232;BME280;7200;52.194;9.900;2022-12-29T08:15:32;98780.97;;;10.93;100.00
14232;BME280;7200;52.194;9.900;2022-12-29T08:17:57;98806.13;;;10.98;100.00
14232;BME280;7200;52.194;9.900;2022-12-29T08:20:23;98809.59;;;10.99;100.00
14232;BME280;7200;52.194;9.900;2022-12-29T08:22:48;98814.66;;;11.02;100.00
14232;BME280;7200;52.194;9.900;2022-12-29T08:25:13;98828.63;;;11.04;100.00
14232;BME280;7200;52.194;9.900;2022-12-29T08:27:39;98825.03;;;11.05;100.00
14232;BME280;7200;52.194;9.900;2022-12-29T08:30:05;98819.00;;;11.03;100.00
14232;BME280;7200;52.194;9.900;2022-12-29T08:32:30;98816.19;;;11.06;100.00
14232;BME280;7200;52.194;9.900;2022-12-29T08:34:56;98817.75;;;11.08;100.00
14232;BME280;7200;52.194;9.900;2022-12-29T08:37:21;98809.66;;;11.12;100.00
14232;BME280;7200;52.194;9.900;2022-12-29T08:39:47;98808.66;;;11.27;100.00
14232;BME280;7200;52.194;9.900;2022-12-29T08:42:12;98797.16;;;11.41;100.00
14232;BME280;7200;52.194;9.900;2022-12-29T08:44:37;98803.22;;;11.56;100.00
14232;BME280;7200;52.194;9.900;2022-12-29T08:47:03;98795.84;;;11.61;100.00
14232;BME280;7200;52.194;9.900;2022-12-29T08:49:28;98779.78;;;11.51;100.00
14232;BME280;7200;52.194;9.900;2022-12-29T08:51:53;98811.06;;;11.57;100.00
14232;BME280;7200;52.194;9.900;2022-12-29T08:54:18;98789.06;;;11.17;100.00
14232;BME280;7200;52.194;9.900;2022-12-29T08:56:44;98825.16;;;10.89;100.00
14232;BME280;7200;52.194;9.900;2022-12-29T08:59:10;98842.63;;;10.48;100.00
14232;BME280;7200;52.194;9.900;2022-12-29T09:01:35;98860.66;;;10.11;100.00
14232;BME280;7200;52.194;9.900;2022-12-29T09:04:01;98882.63;;;9.96;100.00
14232;BME280;7200;52.194;9.900;2022-12-29T09:06:27;98910.69;;;9.97;100.00
14232;BME280;7200;52.194;9.900;2022-12-29T09:08:54;98951.34;;;10.07;100.00
14232;BME280;7200;52.194;9.900;2022-12-29T09:11:22;98977.38;;;10.13;100.00
14232;BME280;7200;52.194;9.900;2022-12-29T09:13:48;98984.31;;;10.30;100.00
14232;BME280;7200;52.194;9.900;2022-12-29T09:16:14;98987.50;;;10.36;100.00
14232;BME280;7200;52.194;9.900;2022-12-29T09:18:40;98977.59;;;10.25;100.00
14232;BME280;7200;52.194;9.900;2022-12-29T09:21:06;98983.19;;;10.35;100.00
14232;BME280;7200;52.194;9.900;2022-12-29T09:23:32;98985.22;;;10.29;100.00
14232;BME280;7200;52.194;9.900;2022-12-29T09:25:58;98993.13;;;10.29;100.00
14232;BME280;7200;52.194;9.900;2022-12-29T09:28:23;99007.59;;;10.38;100.00
14232;BME280;7200;52.194;9.900;2022-12-29T09:30:49;98991.09;;;10.35;100.00
14232;BME280;7200;52.194;9.900;2022-12-29T09:33:15;99002.88;;;10.43;100.00
14232;BME280;7200;52.194;9.900;2022-12-29T09:35:44;98990.06;;;10.37;100.00
14232;BME280;7200;52.194;9.900;2022-12-29T09:38:10;98995.34;;;10.37;100.00
14232;BME280;7200;52.194;9.900;2022-12-29T09:40:37;98993.28;;;10.42;100.00
14232;BME280;7200;52.194;9.900;2022-12-29T09:45:58;99002.25;;;10.40;100.00
14232;BME280;7200;52.194;9.900;2022-12-29T09:48:35;99024.34;;;10.37;100.00
14232;BME280;7200;52.194;9.900;2022-12-29T09:51:08;99023.41;;;10.38;100.00
14232;BME280;7200;52.194;9.900;2022-12-29T09:53:41;99026.13;;;10.37;100.00
14232;BME280;7200;52.194;9.900;2022-12-29T09:56:21;99035.66;;;10.39;100.00
14232;BME280;7200;52.194;9.900;2022-12-29T09:59:00;99038.50;;;10.50;100.00
14232;BME280;7200;52.194;9.900;2022-12-29T10:01:59;99031.09;;;10.57;100.00
14232;BME280;7200;52.194;9.900;2022-12-29T10:04:30;99022.53;;;10.68;100.00
14232;BME280;7200;52.194;9.900;2022-12-29T10:07:01;99016.91;;;10.74;100.00
14232;BME280;7200;52.194;9.900;2022-12-29T10:09:47;99021.09;;;10.93;100.00
14232;BME280;7200;52.194;9.900;2022-12-29T10:12:28;98993.19;;;11.03;100.00
14232;BME280;7200;52.194;9.900;2022-12-29T10:17:45;98962.53;;;11.29;100.00
14232;BME280;7200;52.194;9.900;2022-12-29T10:25:47;98889.66;;;11.26;100.00
14232;BME280;7200;52.194;9.900;2022-12-29T10:28:22;98878.78;;;11.31;100.00
14232;BME280;7200;52.194;9.900;2022-12-29T10:30:49;98880.19;;;11.37;100.00
14232;BME280;7200;52.194;9.900;2022-12-29T10:33:21;98878.75;;;11.45;100.00
14232;BME280;7200;52.194;9.900;2022-12-29T10:35:49;98869.16;;;11.57;100.00
14232;BME280;7200;52.194;9.900;2022-12-29T10:38:35;98845.81;;;11.51;100.00
14232;BME280;7200;52.194;9.900;2022-12-29T10:41:10;98811.44;;;11.38;100.00
14232;BME280;7200;52.194;9.900;2022-12-29T10:43:45;98823.31;;;11.58;100.00
14232;BME280;7200;52.194;9.900;2022-12-29T10:46:14;98787.28;;;11.57;100.00
14232;BME280;7200;52.194;9.900;2022-12-29T10:48:41;98797.34;;;11.65;100.00
14232;BME280;7200;52.194;9.900;2022-12-29T10:51:10;98769.09;;;11.53;100.00
14232;BME280;7200;52.194;9.900;2022-12-29T10:56:30;98767.09;;;11.56;100.00
14232;BME280;7200;52.194;9.900;2022-12-29T10:59:01;98758.09;;;11.46;100.00
14232;BME280;7200;52.194;9.900;2022-12-29T11:01:36;98794.50;;;11.68;100.00
14232;BME280;7200;52.194;9.900;2022-12-29T11:04:07;98778.31;;;11.60;100.00
14232;BME280;7200;52.194;9.900;2022-12-29T11:06:36;98753.38;;;11.51;100.00
14232;BME280;7200;52.194;9.900;2022-12-29T11:09:13;98780.22;;;11.71;100.00
14232;BME280;7200;52.194;9.900;2022-12-29T11:11:40;98769.22;;;11.64;100.00
14232;BME280;7200;52.194;9.900;2022-12-29T11:14:18;98745.22;;;11.54;100.00
14232;BME280;7200;52.194;9.900;2022-12-29T11:16:44;98757.72;;;11.65;100.00
14232;BME280;7200;52.194;9.900;2022-12-29T11:19:21;98733.41;;;11.60;100.00
14232;BME280;7200;52.194;9.900;2022-12-29T11:21:47;98737.66;;;11.62;100.00
14232;BME280;7200;52.194;9.900;2022-12-29T11:24:29;98736.25;;;11.69;100.00
14232;BME280;7200;52.194;9.900;2022-12-29T11:27:08;98721.78;;;11.75;100.00
14232;BME280;7200;52.194;9.900;2022-12-29T11:29:40;98712.81;;;11.78;100.00
14232;BME280;7200;52.194;9.900;2022-12-29T11:32:21;98714.19;;;11.83;100.00
14232;BME280;7200;52.194;9.900;2022-12-29T11:34:47;98683.75;;;11.52;100.00
14232;BME280;7200;52.194;9.900;2022-12-29T11:37:16;98690.41;;;11.58;100.00
14232;BME280;7200;52.194;9.900;2022-12-29T11:39:59;98696.53;;;11.45;100.00
14232;BME280;7200;52.194;9.900;2022-12-29T11:42:52;98715.84;;;11.46;100.00
14232;BME280;7200;52.194;9.900;2022-12-29T11:45:22;98738.03;;;11.56;100.00
14232;BME280;7200;52.194;9.900;2022-12-29T11:47:51;98738.38;;;11.52;100.00
14232;BME280;7200;52.194;9.900;2022-12-29T11:50:20;98729.47;;;11.40;100.00
14232;BME280;7200;52.194;9.900;2022-12-29T11:52:47;98728.22;;;11.45;100.00
14232;BME280;7200;52.194;9.900;2022-12-29T11:55:26;98715.09;;;11.31;100.00
14232;BME280;7200;52.194;9.900;2022-12-29T11:57:53;98724.31;;;11.38;100.00
14232;BME280;7200;52.194;9.900;2022-12-29T12:00:21;98736.38;;;11.55;100.00
14232;BME280;7200;52.194;9.900;2022-12-29T12:03:13;98743.13;;;11.59;100.00
14232;BME280;7200;52.194;9.900;2022-12-29T12:05:47;98715.34;;;11.54;100.00
14232;BME280;7200;52.194;9.900;2022-12-29T12:08:26;98688.09;;;11.53;100.00
14232;BME280;7200;52.194;9.900;2022-12-29T12:11:04;98682.81;;;11.53;100.00
14232;BME280;7200;52.194;9.900;2022-12-29T12:14:01;98689.38;;;11.60;100.00
14232;BME280;7200;52.194;9.900;2022-12-29T12:16:34;98707.31;;;11.68;100.00
14232;BME280;7200;52.194;9.900;2022-12-29T12:19:15;98708.91;;;11.71;100.00
14232;BME280;7200;52.194;9.900;2022-12-29T12:21:50;98686.94;;;11.57;100.00
14232;BME280;7200;52.194;9.900;2022-12-29T12:24:41;98694.31;;;11.52;100.00
14232;BME280;7200;52.194;9.900;2022-12-29T12:27:17;98687.66;;;11.59;100.00
14232;BME280;7200;52.194;9.900;2022-12-29T12:29:55;98679.63;;;11.48;100.00
14232;BME280;7200;52.194;9.900;2022-12-29T12:32:29;98660.41;;;11.46;100.00
14232;BME280;7200;52.194;9.900;2022-12-29T12:34:59;98682.38;;;11.59;100.00
14232;BME280;7200;52.194;9.900;2022-12-29T12:37:48;98677.63;;;11.52;100.00
14232;BME280;7200;52.194;9.900;2022-12-29T12:40:35;98687.56;;;11.61;100.00
14232;BME280;7200;52.194;9.900;2022-12-29T12:45:58;98692.00;;;11.47;100.00
14232;BME280;7200;52.194;9.900;2022-12-29T12:51:24;98701.59;;;11.48;100.00
14232;BME280;7200;52.194;9.900;2022-12-29T12:54:16;98700.44;;;11.53;100.00
14232;BME280;7200;52.194;9.900;2022-12-29T13:00:01;98692.00;;;11.47;100.00
14232;BME280;7200;52.194;9.900;2022-12-29T13:05:50;98683.31;;;11.58;100.00
14232;BME280;7200;52.194;9.900;2022-12-29T13:11:23;98685.97;;;11.58;100.00
14232;BME280;7200;52.194;9.900;2022-12-29T13:16:53;98684.38;;;11.56;100.00
14232;BME280;7200;52.194;9.900;2022-12-29T13:20:06;98686.81;;;11.59;100.00
14232;BME280;7200;52.194;9.900;2022-12-29T13:23:26;98692.41;;;11.67;100.00
14232;BME280;7200;52.194;9.900;2022-12-29T13:29:12;98661.88;;;11.50;100.00
14232;BME280;7200;52.194;9.900;2022-12-29T13:31:56;98687.56;;;11.61;100.00
14232;BME280;7200;52.194;9.900;2022-12-29T13:37:14;98690.84;;;11.52;100.00
14232;BME280;7200;52.194;9.900;2022-12-29T13:39:47;98702.78;;;11.57;100.00
14232;BME280;7200;52.194;9.900;2022-12-29T13:42:16;98697.59;;;11.56;100.00
14232;BME280;7200;52.194;9.900;2022-12-29T13:44:48;98710.78;;;11.56;100.00
14232;BME280;7200;52.194;9.900;2022-12-29T13:49:53;98689.34;;;11.47;100.00
14232;BME280;7200;52.194;9.900;2022-12-29T13:52:29;98714.16;;;11.45;100.00
14232;BME280;7200;52.194;9.900;2022-12-29T13:58:01;98725.34;;;11.48;100.00
14232;BME280;7200;52.194;9.900;2022-12-29T14:00:38;98710.47;;;11.47;100.00
14232;BME280;7200;52.194;9.900;2022-12-29T14:06:03;98728.97;;;11.47;100.00
14232;BME280;7200;52.194;9.900;2022-12-29T14:08:33;98732.13;;;11.40;100.00
14232;BME280;7200;52.194;9.900;2022-12-29T14:11:10;98733.91;;;11.39;100.00
14232;BME280;7200;52.194;9.900;2022-12-29T14:13:40;98739.50;;;11.35;100.00
14232;BME280;7200;52.194;9.900;2022-12-29T14:16:10;98731.56;;;11.35;100.00
14232;BME280;7200;52.194;9.900;2022-12-29T14:18:43;98768.69;;;11.46;100.00
14232;BME280;7200;52.194;9.900;2022-12-29T14:23:43;98764.66;;;11.40;100.00
14232;BME280;7200;52.194;9.900;2022-12-29T14:26:32;98775.13;;;11.42;100.00
14232;BME280;7200;52.194;9.900;2022-12-29T14:29:41;98764.09;;;11.35;100.00
14232;BME280;7200;52.194;9.900;2022-12-29T14:32:01;98764.75;;;11.39;100.00
14232;BME280;7200;52.194;9.900;2022-12-29T14:34:29;98752.16;;;11.29;100.00
14232;BME280;7200;52.194;9.900;2022-12-29T14:37:02;98771.72;;;11.40;100.00
14232;BME280;7200;52.194;9.900;2022-12-29T14:39:36;98748.78;;;11.27;100.00